createdAt,value
2022-09-07T00:02:38.821Z,1.80
2022-09-07T00:06:01.115Z,1.90
2022-09-07T00:09:22.913Z,1.90
2022-09-07T00:12:44.618Z,1.83
2022-09-07T00:16:08.154Z,1.95
2022-09-07T00:19:31.144Z,2.03
2022-09-07T00:22:53.096Z,2.10
2022-09-07T00:26:17.035Z,2.10
2022-09-07T00:29:38.817Z,1.80
2022-09-07T00:33:01.009Z,1.92
2022-09-07T00:36:24.604Z,1.75
2022-09-07T00:39:47.044Z,1.90
2022-09-07T00:43:10.257Z,2.00
2022-09-07T00:46:33.022Z,2.30
2022-09-07T00:49:58.212Z,2.15
2022-09-07T00:53:27.186Z,2.28
2022-09-07T00:56:52.733Z,2.22
2022-09-07T01:00:15.067Z,2.05
2022-09-07T01:03:42.775Z,2.30
2022-09-07T01:07:05.570Z,2.00
2022-09-07T01:10:31.907Z,2.33
2022-09-07T01:13:55.037Z,2.17
2022-09-07T01:17:25.066Z,2.30
2022-09-07T01:21:02.342Z,2.50
2022-09-07T01:24:41.595Z,2.15
2022-09-07T01:28:13.212Z,2.30
2022-09-07T01:31:43.576Z,2.40
2022-09-07T01:35:12.773Z,2.40
2022-09-07T01:38:42.515Z,2.30
2022-09-07T01:42:09.582Z,2.20
2022-09-07T01:45:37.110Z,2.17
2022-09-07T01:49:04.627Z,2.50
2022-09-07T01:52:35.445Z,2.25
2022-09-07T01:56:00.133Z,2.53
2022-09-07T01:59:29.268Z,2.38
2022-09-07T02:02:56.761Z,2.47
2022-09-07T02:06:25.005Z,2.22
2022-09-07T02:09:51.719Z,2.10
2022-09-07T02:13:19.355Z,2.42
2022-09-07T02:16:50.022Z,2.08
2022-09-07T02:20:18.672Z,2.03
2022-09-07T02:23:48.017Z,2.53
2022-09-07T02:27:16.307Z,2.45
2022-09-07T02:30:38.879Z,2.30
2022-09-07T02:34:01.367Z,1.90
2022-09-07T02:37:28.332Z,2.00
2022-09-07T02:40:52.413Z,2.50
2022-09-07T02:44:18.563Z,2.33
2022-09-07T02:48:04.747Z,2.45
2022-09-07T02:51:37.203Z,2.15
2022-09-07T02:55:10.976Z,2.42
2022-09-07T02:58:41.635Z,2.28
2022-09-07T03:02:08.940Z,2.20
2022-09-07T03:05:40.221Z,2.28
2022-09-07T03:09:08.326Z,2.28
2022-09-07T03:12:42.037Z,2.45
2022-09-07T03:16:04.091Z,2.40
2022-09-07T03:19:25.854Z,2.40
2022-09-07T03:22:50.254Z,2.50
2022-09-07T03:26:23.836Z,2.30
2022-09-07T03:29:47.009Z,2.38
2022-09-07T03:33:09.199Z,2.50
2022-09-07T03:36:31.853Z,2.55
2022-09-07T03:39:54.202Z,2.88
2022-09-07T03:43:15.987Z,2.60
2022-09-07T03:46:39.021Z,2.80
2022-09-07T03:50:00.818Z,3.15
2022-09-07T03:53:23.005Z,2.50
2022-09-07T03:56:44.617Z,2.83
2022-09-07T04:00:07.547Z,2.35
2022-09-07T04:03:35.815Z,2.72
2022-09-07T04:06:57.726Z,2.40
2022-09-07T04:10:19.391Z,2.45
2022-09-07T04:13:41.920Z,2.60
2022-09-07T04:17:03.824Z,2.75
2022-09-07T04:20:27.327Z,2.47
2022-09-07T04:23:49.819Z,2.67
2022-09-07T04:27:11.314Z,2.83
2022-09-07T04:30:35.722Z,2.97
2022-09-07T04:33:57.801Z,2.50
2022-09-07T04:37:20.975Z,2.70
2022-09-07T04:40:43.419Z,3.13
2022-09-07T04:44:06.156Z,2.88
2022-09-07T04:47:30.625Z,3.00
2022-09-07T04:50:53.242Z,2.97
2022-09-07T04:54:16.281Z,3.00
2022-09-07T04:57:38.414Z,2.90
2022-09-07T05:01:02.422Z,4.20
2022-09-07T05:04:24.045Z,4.60
2022-09-07T05:07:46.129Z,3.13
2022-09-07T05:11:10.261Z,3.17
2022-09-07T05:14:32.116Z,3.22
2022-09-07T05:17:53.842Z,2.95
2022-09-07T05:21:17.350Z,3.20
2022-09-07T05:24:39.341Z,2.90
2022-09-07T05:28:03.840Z,4.68
2022-09-07T05:31:25.669Z,3.00
2022-09-07T05:34:49.649Z,2.90
2022-09-07T05:38:12.867Z,3.13
2022-09-07T05:41:34.930Z,2.60
2022-09-07T05:44:58.208Z,2.70
2022-09-07T05:48:20.274Z,3.30
2022-09-07T05:51:41.940Z,3.20
2022-09-07T05:55:26.298Z,2.80
2022-09-07T05:58:49.919Z,3.45
2022-09-07T06:02:15.568Z,2.92
2022-09-07T06:05:37.370Z,2.60
2022-09-07T06:08:59.952Z,3.03
2022-09-07T06:12:21.875Z,3.25
2022-09-07T06:15:43.601Z,3.40
2022-09-07T06:19:08.334Z,3.17
2022-09-07T06:22:31.350Z,2.95
2022-09-07T06:25:53.292Z,3.22
2022-09-07T06:29:15.141Z,3.15
2022-09-07T06:36:07.126Z,3.35
2022-09-07T06:39:30.587Z,3.55
2022-09-07T06:42:55.614Z,3.47
2022-09-07T06:50:00.211Z,3.35
2022-09-07T06:53:40.722Z,3.30
2022-09-07T06:57:09.228Z,3.47
2022-09-07T07:00:31.487Z,3.50
2022-09-07T07:03:54.620Z,3.80
2022-09-07T07:07:16.525Z,3.13
2022-09-07T07:10:40.408Z,3.67
2022-09-07T07:14:02.380Z,3.28
2022-09-07T07:17:24.175Z,3.17
2022-09-07T07:20:45.912Z,4.80
2022-09-07T07:24:08.553Z,3.60
2022-09-07T07:27:32.609Z,3.53
2022-09-07T07:30:56.744Z,3.30
2022-09-07T07:34:19.080Z,3.47
2022-09-07T07:37:41.069Z,4.18
2022-09-07T07:44:45.968Z,4.32
2022-09-07T07:48:08.114Z,3.85
2022-09-07T07:51:30.542Z,3.60
2022-09-07T07:54:52.425Z,4.50
2022-09-07T07:58:14.769Z,3.67
2022-09-07T08:01:38.526Z,4.15
2022-09-07T08:05:00.207Z,3.75
2022-09-07T08:08:23.590Z,4.28
2022-09-07T08:11:45.368Z,4.57
2022-09-07T08:15:08.317Z,4.22
2022-09-07T08:18:34.575Z,4.05
2022-09-07T08:21:56.769Z,4.28
2022-09-07T08:25:19.211Z,4.10
2022-09-07T08:28:43.942Z,4.20
2022-09-07T08:32:07.269Z,4.53
2022-09-07T08:35:30.647Z,4.28
2022-09-07T08:38:52.753Z,4.82
2022-09-07T08:42:43.214Z,4.80
2022-09-07T08:46:27.868Z,4.20
2022-09-07T08:49:53.724Z,4.32
2022-09-07T08:53:18.338Z,5.22
2022-09-07T09:00:28.652Z,4.00
2022-09-07T09:07:43.590Z,4.70
2022-09-07T09:11:12.671Z,4.68
2022-09-07T09:14:57.417Z,4.68
2022-09-07T09:18:35.475Z,4.32
2022-09-07T09:22:09.164Z,4.57
2022-09-07T09:25:34.591Z,4.88
2022-09-07T09:28:58.072Z,4.95
2022-09-07T09:32:39.863Z,4.88
2022-09-07T09:36:02.313Z,4.55
2022-09-07T09:39:30.154Z,4.43
2022-09-07T09:43:02.047Z,4.50
2022-09-07T09:46:28.675Z,4.80
2022-09-07T09:49:52.821Z,4.65
2022-09-07T09:53:25.531Z,5.22
2022-09-07T09:56:49.327Z,4.28
2022-09-07T10:00:27.511Z,4.70
2022-09-07T10:07:22.121Z,4.53
2022-09-07T10:10:59.488Z,4.78
2022-09-07T10:14:28.770Z,5.10
2022-09-07T10:17:51.981Z,4.38
2022-09-07T10:21:24.643Z,4.55
2022-09-07T10:24:46.393Z,4.63
2022-09-07T10:28:19.494Z,5.05
2022-09-07T10:32:14.564Z,4.50
2022-09-07T10:35:45.478Z,5.50
2022-09-07T10:39:15.998Z,5.30
2022-09-07T10:43:20.695Z,5.38
2022-09-07T10:46:58.602Z,5.38
2022-09-07T10:50:31.035Z,5.50
2022-09-07T10:58:08.514Z,5.18
2022-09-07T11:01:43.279Z,5.13
2022-09-07T11:05:16.258Z,5.20
2022-09-07T11:12:37.343Z,5.10
2022-09-07T11:16:04.837Z,4.70
2022-09-07T11:19:35.803Z,4.80
2022-09-07T11:23:11.174Z,4.97
2022-09-07T11:26:41.227Z,5.03
2022-09-07T11:30:07.350Z,5.80
2022-09-07T11:33:35.388Z,5.28
2022-09-07T11:37:02.138Z,4.78
2022-09-07T11:40:28.424Z,5.00
2022-09-07T11:43:58.275Z,4.93
2022-09-07T11:47:27.857Z,4.90
2022-09-07T11:50:57.494Z,4.90
2022-09-07T11:54:30.083Z,5.13
2022-09-07T11:58:17.564Z,4.35
2022-09-07T12:01:51.604Z,5.35
2022-09-07T12:05:25.418Z,5.53
2022-09-07T12:09:05.511Z,4.90
2022-09-07T12:12:43.765Z,5.65
2022-09-07T12:16:11.961Z,5.03
2022-09-07T12:19:33.678Z,5.53
2022-09-07T12:23:05.707Z,5.32
2022-09-07T12:26:55.202Z,5.53
2022-09-07T12:30:55.516Z,5.82
2022-09-07T12:34:40.651Z,6.25
2022-09-07T12:38:03.727Z,6.10
2022-09-07T12:41:41.076Z,6.07
2022-09-07T12:45:36.186Z,6.32
2022-09-07T12:49:07.356Z,5.82
2022-09-07T12:53:09.934Z,6.20
2022-09-07T12:56:42.703Z,5.70
2022-09-07T13:00:16.840Z,6.63
2022-09-07T13:04:02.494Z,6.40
2022-09-07T13:07:41.734Z,6.05
2022-09-07T13:11:18.030Z,6.35
2022-09-07T13:14:42.229Z,6.40
2022-09-07T13:18:05.087Z,6.47
2022-09-07T13:21:39.337Z,6.80
2022-09-07T13:25:03.755Z,6.85
2022-09-07T13:28:41.081Z,6.35
2022-09-07T13:32:11.168Z,6.60
2022-09-07T13:35:33.809Z,6.45
2022-09-07T13:38:56.496Z,7.22
2022-09-07T13:42:23.299Z,6.45
2022-09-07T13:46:01.472Z,6.38
2022-09-07T13:49:39.666Z,6.22
2022-09-07T13:53:38.808Z,6.65
2022-09-07T13:57:18.249Z,5.63
2022-09-07T14:00:53.224Z,5.35
2022-09-07T14:04:23.802Z,5.72
2022-09-07T14:07:52.139Z,5.38
2022-09-07T14:11:23.346Z,5.57
2022-09-07T14:14:45.082Z,5.20
2022-09-07T14:18:14.548Z,5.38
2022-09-07T14:21:36.807Z,5.97
2022-09-07T14:25:09.323Z,5.60
2022-09-07T14:28:33.963Z,5.40
2022-09-07T14:31:55.814Z,5.50
2022-09-07T14:35:21.258Z,4.82
2022-09-07T14:42:25.941Z,4.97
2022-09-07T14:45:49.416Z,5.60
2022-09-07T14:49:20.814Z,5.43
2022-09-07T14:53:33.906Z,5.65
2022-09-07T14:56:31.530Z,4.95
2022-09-07T14:59:57.334Z,5.53
2022-09-07T15:03:29.626Z,4.90
2022-09-07T15:07:06.596Z,5.22
2022-09-07T15:10:38.380Z,5.32
2022-09-07T15:14:10.040Z,5.53
2022-09-07T15:17:48.998Z,5.45
2022-09-07T15:21:11.100Z,5.68
2022-09-07T15:24:32.819Z,5.15
2022-09-07T15:28:01.850Z,5.80
2022-09-07T15:35:05.696Z,5.30
2022-09-07T15:45:52.640Z,5.40
2022-09-07T15:49:14.519Z,5.72
2022-09-07T15:52:37.990Z,5.60
2022-09-07T15:56:03.242Z,5.28
2022-09-07T15:59:25.202Z,5.72
2022-09-07T16:03:06.175Z,5.32
2022-09-07T16:06:29.541Z,5.35
2022-09-07T16:09:52.540Z,5.10
2022-09-07T16:13:16.932Z,5.05
2022-09-07T16:20:21.938Z,5.38
2022-09-07T16:23:47.169Z,5.60
2022-09-07T16:27:08.858Z,5.43
2022-09-07T16:30:31.188Z,5.55
2022-09-07T16:33:53.506Z,5.22
2022-09-07T16:37:16.935Z,5.55
2022-09-07T16:40:42.251Z,5.18
2022-09-07T16:44:04.188Z,5.10
2022-09-07T16:47:26.062Z,5.15
2022-09-07T16:51:01.164Z,4.97
2022-09-07T16:54:25.186Z,5.20
2022-09-07T17:01:30.328Z,5.75
2022-09-07T17:04:52.218Z,5.35
2022-09-07T17:08:14.286Z,5.10
2022-09-07T17:11:37.863Z,6.13
2022-09-07T17:14:59.697Z,6.57
2022-09-07T17:19:28.778Z,6.28
2022-09-07T17:22:05.150Z,6.22
2022-09-07T17:25:28.243Z,6.10
2022-09-07T17:28:53.052Z,6.28
2022-09-07T17:32:29.838Z,5.75
2022-09-07T17:35:53.566Z,6.38
2022-09-07T17:39:17.678Z,6.32
2022-09-07T17:46:25.996Z,6.20
2022-09-07T17:49:47.914Z,6.32
2022-09-07T17:53:09.838Z,5.75
2022-09-07T17:56:32.182Z,6.60
2022-09-07T18:03:36.832Z,5.45
2022-09-07T18:06:58.693Z,6.20
2022-09-07T18:10:20.039Z,6.53
2022-09-07T18:13:45.955Z,6.00
2022-09-07T18:17:07.459Z,5.53
2022-09-07T18:20:33.507Z,4.93
2022-09-07T18:23:56.694Z,5.70
2022-09-07T18:27:21.057Z,5.68
2022-09-07T18:30:43.014Z,7.38
2022-09-07T18:34:04.663Z,6.50
2022-09-07T18:37:28.319Z,6.10
2022-09-07T18:41:00.876Z,8.25
2022-09-07T18:48:07.904Z,6.25
2022-09-07T18:51:30.905Z,5.07
2022-09-07T18:54:54.061Z,4.57
2022-09-07T18:58:16.297Z,5.07
2022-09-07T19:01:39.462Z,4.60
2022-09-07T19:08:45.618Z,4.18
2022-09-07T19:12:10.031Z,4.28
2022-09-07T19:15:37.134Z,4.25
2022-09-07T19:19:01.646Z,4.05
2022-09-07T19:22:23.390Z,4.20
2022-09-07T19:25:45.475Z,4.40
2022-09-07T19:29:15.398Z,4.38
2022-09-07T19:32:37.386Z,4.60
2022-09-07T19:35:59.047Z,4.45
2022-09-07T19:39:20.934Z,4.88
2022-09-07T19:42:42.859Z,3.97
2022-09-07T19:46:06.295Z,4.50
2022-09-07T19:49:28.272Z,4.32
2022-09-07T19:52:50.454Z,4.72
2022-09-07T19:56:14.235Z,4.50
2022-09-07T19:59:35.969Z,4.07
2022-09-07T20:02:59.737Z,4.82
2022-09-07T20:06:21.118Z,4.80
2022-09-07T20:09:42.985Z,4.75
2022-09-07T20:13:04.667Z,4.40
2022-09-07T20:16:28.008Z,4.28
2022-09-07T20:19:51.658Z,5.25
2022-09-07T20:23:13.303Z,4.35
2022-09-07T20:26:35.123Z,4.15
2022-09-07T20:29:57.164Z,4.50
2022-09-07T20:33:19.374Z,4.32
2022-09-07T20:36:42.356Z,4.82
2022-09-07T20:40:05.914Z,4.40
2022-09-07T20:43:28.234Z,4.32
2022-09-07T20:46:50.003Z,4.65
2022-09-07T20:50:11.818Z,4.40
2022-09-07T20:53:38.440Z,3.92
2022-09-07T20:57:03.374Z,4.47
2022-09-07T21:00:27.329Z,4.22
2022-09-07T21:03:50.717Z,4.60
2022-09-07T21:07:12.465Z,4.30
2022-09-07T21:10:42.102Z,4.53
2022-09-07T21:14:13.022Z,5.03
2022-09-07T21:17:38.749Z,4.22
2022-09-07T21:21:19.257Z,4.38
2022-09-07T21:24:42.180Z,3.60
2022-09-07T21:28:05.401Z,4.15
2022-09-07T21:31:28.413Z,4.68
2022-09-07T21:34:50.129Z,4.20
2022-09-07T21:38:11.890Z,3.97
2022-09-07T21:41:33.672Z,4.05
2022-09-07T21:44:56.391Z,4.28
2022-09-07T21:48:18.170Z,3.88
2022-09-07T21:51:40.430Z,4.13
2022-09-07T21:55:02.360Z,3.65
2022-09-07T21:58:24.278Z,4.28
2022-09-07T22:01:47.669Z,4.10
2022-09-07T22:05:10.129Z,3.70
2022-09-07T22:08:32.921Z,3.72
2022-09-07T22:11:54.686Z,4.20
2022-09-07T22:15:16.351Z,3.78
2022-09-07T22:18:40.705Z,3.63
2022-09-07T22:22:02.165Z,3.53
2022-09-07T22:25:24.199Z,3.95
2022-09-07T22:28:45.904Z,3.55
2022-09-07T22:32:07.597Z,3.70
2022-09-07T22:35:30.974Z,3.80
2022-09-07T22:38:54.819Z,4.18
2022-09-07T22:42:16.234Z,3.58
2022-09-07T22:45:38.301Z,3.10
2022-09-07T22:49:00.853Z,3.88
2022-09-07T22:52:24.133Z,3.10
2022-09-07T22:55:45.585Z,3.63
2022-09-07T22:59:08.980Z,3.30
2022-09-07T23:02:31.943Z,3.80
2022-09-07T23:05:55.750Z,3.60
2022-09-07T23:09:20.830Z,2.83
2022-09-07T23:12:42.718Z,3.83
2022-09-07T23:16:06.115Z,3.38
2022-09-07T23:19:27.981Z,3.40
2022-09-07T23:22:49.971Z,3.13
2022-09-07T23:26:12.622Z,3.28
2022-09-07T23:29:34.529Z,3.00
2022-09-07T23:32:56.617Z,3.55
2022-09-07T23:36:19.868Z,3.53
2022-09-07T23:39:41.941Z,3.35
2022-09-07T23:43:05.149Z,3.15
2022-09-07T23:46:27.169Z,3.13
2022-09-07T23:49:48.984Z,3.72
2022-09-07T23:53:10.456Z,2.83
2022-09-07T23:56:32.704Z,3.10
2022-09-07T23:59:55.774Z,3.03
